Time;durP1;ratioP1;P1;durP2;ratioP2;P2;SDS_P1;SDS_P2;PMS_P1;PMS_P2;Temp;Humidity;BMP_temperature;BMP_pressure;BME280_temperature;BME280_humidity;BME280_pressure;Samples;Min_cycle;Max_cycle;Signal;HPM_P1;HPM_P2
2022/06/20 00:04:02;;;;;;;30.92;22.15;;;24.30;66.10;;;;;;7374204;19;20429;-85
2022/06/20 00:06:38;;;;;;;31.13;21.05;;;24.30;65.80;;;;;;7368330;19;20011;-84
2022/06/20 00:09:08;;;;;;;34.10;22.45;;;24.40;66.00;;;;;;7375201;19;20018;-83
2022/06/20 00:11:41;;;;;;;32.28;22.58;;;24.40;66.10;;;;;;7376883;19;20021;-84
2022/06/20 00:14:16;;;;;;;27.92;20.85;;;24.40;66.60;;;;;;7391970;19;20018;-83
2022/06/20 00:16:54;;;;;;;31.35;22.27;;;24.30;66.30;;;;;;7397613;19;20046;-83
2022/06/20 00:19:34;;;;;;;36.25;23.30;;;24.40;66.30;;;;;;7378155;19;20687;-83
2022/06/20 00:22:08;;;;;;;39.80;23.60;;;24.40;66.00;;;;;;7377483;19;20077;-83
2022/06/20 00:24:49;;;;;;;31.30;21.15;;;24.40;66.40;;;;;;7339822;19;20049;-83
2022/06/20 00:27:31;;;;;;;30.58;21.30;;;24.40;65.20;;;;;;7377040;19;20019;-84
2022/06/20 00:30:08;;;;;;;35.67;24.37;;;24.40;65.10;;;;;;7375188;19;20018;-83
2022/06/20 00:32:47;;;;;;;31.33;23.15;;;24.30;65.70;;;;;;7375829;19;20240;-85
2022/06/20 00:35:23;;;;;;;34.58;23.70;;;24.30;65.60;;;;;;7374924;19;20022;-84
2022/06/20 00:38:20;;;;;;;34.90;23.30;;;24.30;66.10;;;;;;7396926;19;20048;-84
2022/06/20 00:40:52;;;;;;;34.63;23.67;;;24.20;66.20;;;;;;7377928;19;20340;-84
2022/06/20 00:43:32;;;;;;;34.92;22.98;;;24.20;66.40;;;;;;7373499;19;20014;-84
2022/06/20 00:46:11;;;;;;;36.78;24.20;;;24.10;65.60;;;;;;7378262;19;20070;-84
2022/06/20 00:48:50;;;;;;;36.47;24.50;;;24.10;67.10;;;;;;7379249;19;20504;-84
2022/06/20 00:51:26;;;;;;;34.53;22.45;;;24.00;67.30;;;;;;7377853;19;20010;-85
2022/06/20 00:54:03;;;;;;;31.23;23.13;;;23.90;67.60;;;;;;7377277;19;20007;-85
2022/06/20 00:56:45;;;;;;;31.92;22.48;;;23.90;68.00;;;;;;7375151;19;20089;-84
2022/06/20 00:59:22;;;;;;;28.70;21.00;;;23.90;67.40;;;;;;7377540;19;20025;-84
2022/06/20 01:01:54;;;;;;;31.02;21.98;;;23.90;67.00;;;;;;7398100;19;20018;-84
2022/06/20 01:05:01;;;;;;;34.42;22.27;;;23.90;67.30;;;;;;7375744;19;20019;-84
2022/06/20 01:07:40;;;;;;;33.83;24.08;;;23.80;65.90;;;;;;7375852;19;20090;-84
2022/06/20 01:10:23;;;;;;;37.65;24.80;;;23.80;67.40;;;;;;7373882;19;20029;-85
2022/06/20 01:13:06;;;;;;;32.58;23.33;;;23.70;67.50;;;;;;7376371;19;20017;-85
2022/06/20 01:16:00;;;;;;;34.65;24.38;;;23.70;68.70;;;;;;7371680;19;20007;-85
2022/06/20 01:18:40;;;;;;;33.78;23.58;;;23.60;67.80;;;;;;7372850;19;20018;-84
2022/06/20 01:21:38;;;;;;;33.33;23.92;;;23.60;67.80;;;;;;7372635;19;20046;-85
2022/06/20 01:24:23;;;;;;;32.95;23.77;;;23.60;68.50;;;;;;7373747;19;20010;-84
2022/06/20 01:27:07;;;;;;;32.50;22.55;;;23.60;69.10;;;;;;7376466;19;20940;-84
2022/06/20 01:29:51;;;;;;;30.25;22.38;;;23.60;68.40;;;;;;7377220;19;20047;-85
2022/06/20 01:32:30;;;;;;;28.33;20.45;;;23.50;66.50;;;;;;7373512;19;20034;-85
2022/06/20 01:35:11;;;;;;;34.47;23.25;;;23.50;68.50;;;;;;7395331;19;20021;-84
2022/06/20 01:37:41;;;;;;;28.92;22.08;;;23.50;69.10;;;;;;7376836;19;20026;-84
2022/06/20 01:40:17;;;;;;;25.33;21.40;;;23.50;70.00;;;;;;7377051;19;20014;-84
2022/06/20 01:42:45;;;;;;;29.80;21.48;;;23.50;69.70;;;;;;7373516;19;20438;-84
2022/06/20 01:48:17;;;;;;;29.83;22.65;;;23.40;67.50;;;;;;7375375;19;20026;-84
2022/06/20 01:50:48;;;;;;;30.70;22.63;;;23.30;67.60;;;;;;7375227;19;20017;-84
2022/06/20 01:53:21;;;;;;;32.38;20.60;;;23.20;67.40;;;;;;7374267;19;20042;-83
2022/06/20 01:55:54;;;;;;;27.70;19.25;;;23.00;68.10;;;;;;7396035;19;20014;-84
2022/06/20 01:58:28;;;;;;;26.67;19.67;;;22.90;68.70;;;;;;7375789;19;20074;-82
2022/06/20 02:01:00;;;;;;;25.77;19.83;;;22.90;69.40;;;;;;7374469;19;20078;-82
2022/06/20 02:03:31;;;;;;;24.48;19.17;;;22.90;69.70;;;;;;7375014;19;20018;-82
2022/06/20 02:06:02;;;;;;;22.58;17.95;;;23.00;69.90;;;;;;7373758;19;20018;-82
2022/06/20 02:08:33;;;;;;;24.00;18.10;;;23.00;69.30;;;;;;7375604;19;20014;-82
2022/06/20 02:11:08;;;;;;;25.63;19.35;;;23.10;69.00;;;;;;7397669;19;20014;-82
2022/06/20 02:13:41;;;;;;;25.10;19.95;;;23.10;69.00;;;;;;7374656;19;20018;-82
2022/06/20 02:16:17;;;;;;;26.25;20.70;;;23.10;69.80;;;;;;7373307;19;20448;-82
2022/06/20 02:18:49;;;;;;;25.85;19.88;;;23.10;68.70;;;;;;7374314;19;20022;-82
2022/06/20 02:21:23;;;;;;;32.88;20.95;;;23.20;69.80;;;;;;7374944;19;20430;-81
2022/06/20 02:23:54;;;;;;;25.80;19.67;;;23.20;69.50;;;;;;7372991;19;20015;-82
2022/06/20 02:26:25;;;;;;;27.98;19.58;;;23.10;68.10;;;;;;7372638;19;20106;-82
2022/06/20 02:29:00;;;;;;;21.90;18.17;;;23.10;69.40;;;;;;7392613;19;20019;-82
2022/06/20 02:31:32;;;;;;;24.50;19.52;;;23.10;69.40;;;;;;7371145;19;20018;-82
2022/06/20 02:34:01;;;;;;;21.33;17.42;;;23.20;69.80;;;;;;7373463;19;20026;-82
2022/06/20 02:36:31;;;;;;;23.02;18.08;;;23.20;68.90;;;;;;7374428;19;20608;-82
2022/06/20 02:39:03;;;;;;;23.90;17.58;;;23.20;67.60;;;;;;7374136;19;20038;-83
2022/06/20 02:41:35;;;;;;;26.77;19.15;;;23.10;66.10;;;;;;7371385;19;20075;-83
2022/06/20 02:44:10;;;;;;;23.98;18.42;;;23.00;67.10;;;;;;7395650;19;20014;-83
2022/06/20 02:46:44;;;;;;;24.80;17.50;;;23.00;67.60;;;;;;7373581;19;20753;-82
2022/06/20 02:49:15;;;;;;;23.23;18.48;;;23.00;68.20;;;;;;7371453;19;20372;-82
2022/06/20 02:51:48;;;;;;;29.08;19.00;;;23.00;67.80;;;;;;7372549;19;20029;-83
2022/06/20 02:54:18;;;;;;;24.40;17.25;;;23.00;67.60;;;;;;7368731;19;20067;-83
2022/06/20 02:56:51;;;;;;;27.48;19.98;;;23.00;68.00;;;;;;7371787;19;20011;-83
2022/06/20 02:59:23;;;;;;;25.20;17.95;;;23.00;67.50;;;;;;7370020;19;20047;-82
2022/06/20 03:02:01;;;;;;;26.27;18.75;;;22.90;67.70;;;;;;7396542;19;20016;-83
2022/06/20 03:04:34;;;;;;;25.65;18.52;;;23.00;68.00;;;;;;7374407;19;20135;-82
2022/06/20 03:07:06;;;;;;;21.65;18.08;;;22.90;67.80;;;;;;7371918;19;20041;-82
2022/06/20 03:09:37;;;;;;;26.30;17.42;;;22.90;68.80;;;;;;7373609;19;20104;-83
2022/06/20 03:12:09;;;;;;;33.17;19.40;;;23.00;68.90;;;;;;7371597;19;20362;-83
2022/06/20 03:14:41;;;;;;;;;;;23.00;69.00;;;;;;7372927;19;20347;-82
2022/06/20 03:17:15;;;;;;;25.05;18.33;;;23.10;67.60;;;;;;7390289;19;19954;-82
2022/06/20 03:19:50;;;;;;;27.70;18.73;;;23.10;67.50;;;;;;7396003;19;20023;-83
2022/06/20 03:22:24;;;;;;;27.88;20.42;;;23.00;68.10;;;;;;7370382;19;20014;-83
2022/06/20 03:24:54;;;;;;;24.83;20.13;;;23.00;67.50;;;;;;7371268;19;20478;-83
2022/06/20 03:27:27;;;;;;;23.88;19.85;;;23.00;67.40;;;;;;7369878;19;20018;-83
2022/06/20 03:30:00;;;;;;;29.70;21.48;;;23.00;68.00;;;;;;7371484;19;20037;-83
2022/06/20 03:32:32;;;;;;;25.15;19.77;;;22.90;67.30;;;;;;7371694;19;20010;-83
2022/06/20 03:35:01;;;;;;;29.67;20.60;;;22.80;67.80;;;;;;7393015;19;20341;-82
2022/06/20 03:37:30;;;;;;;29.95;21.70;;;22.90;68.20;;;;;;7370458;19;20022;-83
2022/06/20 03:39:59;;;;;;;32.17;22.65;;;22.90;67.90;;;;;;7371076;19;20026;-83
2022/06/20 03:42:29;;;;;;;33.72;22.35;;;22.90;67.40;;;;;;7369057;19;20089;-82
2022/06/20 03:45:03;;;;;;;30.73;22.85;;;22.90;67.50;;;;;;7378327;19;20090;-83
2022/06/20 03:47:41;;;;;;;31.20;24.38;;;22.90;68.40;;;;;;7379663;19;20300;-83
2022/06/20 03:50:16;;;;;;;35.08;26.13;;;22.90;67.20;;;;;;7388807;19;20470;-83
2022/06/20 03:52:53;;;;;;;38.17;24.00;;;22.70;65.50;;;;;;7401812;19;20021;-83
2022/06/20 03:55:30;;;;;;;31.60;24.17;;;22.80;66.10;;;;;;7377479;19;20034;-82
2022/06/20 03:58:03;;;;;;;34.40;24.63;;;22.60;66.10;;;;;;7380338;19;20014;-82
2022/06/20 04:00:40;;;;;;;41.17;27.20;;;22.60;66.50;;;;;;7376809;19;20027;-84
2022/06/20 04:03:27;;;;;;;35.72;24.95;;;22.50;65.60;;;;;;7378163;19;20019;-84
2022/06/20 04:06:01;;;;;;;35.72;24.83;;;22.40;65.30;;;;;;7374286;19;20328;-84
2022/06/20 04:11:24;;;;;;;41.65;25.55;;;22.30;65.70;;;;;;7377595;19;20010;-85
2022/06/20 04:14:00;;;;;;;36.85;25.83;;;22.00;65.20;;;;;;7400699;19;20022;-84
2022/06/20 04:16:34;;;;;;;39.45;28.50;;;21.90;66.10;;;;;;7377955;19;20019;-83
2022/06/20 04:19:11;;;;;;;35.38;26.20;;;21.80;65.60;;;;;;7377306;19;20018;-82
2022/06/20 04:21:47;;;;;;;38.30;27.08;;;21.90;66.30;;;;;;7374770;19;20022;-82
2022/06/20 04:24:22;;;;;;;43.45;29.45;;;21.70;66.20;;;;;;7377630;19;20014;-82
2022/06/20 04:26:58;;;;;;;41.92;28.65;;;21.70;66.10;;;;;;7378371;19;20026;-82
2022/06/20 04:29:39;;;;;;;43.30;29.45;;;21.80;66.50;;;;;;7380008;19;20010;-84
2022/06/20 04:32:18;;;;;;;40.47;27.27;;;21.90;65.90;;;;;;7396954;19;20030;-82
2022/06/20 04:34:58;;;;;;;38.75;28.15;;;22.00;65.70;;;;;;7378796;19;20014;-82
2022/06/20 04:37:33;;;;;;;40.08;27.63;;;21.80;65.50;;;;;;7374922;19;20070;-83
2022/06/20 04:40:09;;;;;;;39.70;26.73;;;21.90;65.30;;;;;;7377066;19;20084;-84
2022/06/20 04:42:43;;;;;;;36.28;26.98;;;22.00;65.50;;;;;;7376735;19;20016;-83
2022/06/20 04:45:20;;;;;;;38.78;26.90;;;22.10;65.70;;;;;;7376219;19;20018;-85
2022/06/20 04:47:54;;;;;;;39.28;27.75;;;22.20;65.30;;;;;;7378634;19;20018;-83
2022/06/20 04:50:28;;;;;;;38.92;27.88;;;22.30;64.30;;;;;;7376311;19;20019;-81
2022/06/20 04:53:01;;;;;;;35.15;25.10;;;22.10;65.00;;;;;;7395053;19;20022;-81
2022/06/20 04:55:32;;;;;;;42.58;25.38;;;22.10;65.30;;;;;;7374330;19;20014;-82
2022/06/20 04:58:04;;;;;;;40.10;26.45;;;22.20;65.10;;;;;;7377162;19;20026;-83
2022/06/20 05:00:39;;;;;;;39.17;26.58;;;22.20;65.40;;;;;;7375956;19;20014;-84
2022/06/20 05:03:10;;;;;;;43.40;25.65;;;22.20;65.00;;;;;;7373618;19;20011;-84
2022/06/20 05:05:45;;;;;;;34.05;24.92;;;22.20;65.20;;;;;;7375720;19;20010;-84
2022/06/20 05:08:17;;;;;;;33.70;24.00;;;22.20;64.90;;;;;;7377549;19;20010;-84
2022/06/20 05:10:51;;;;;;;33.03;23.80;;;22.20;64.90;;;;;;7398590;19;20018;-86
2022/06/20 05:13:24;;;;;;;29.42;22.50;;;22.10;64.70;;;;;;7379338;19;20022;-84
2022/06/20 05:15:54;;;;;;;30.25;21.35;;;22.20;64.60;;;;;;7375852;19;20027;-83
2022/06/20 05:18:29;;;;;;;35.83;22.95;;;22.30;65.00;;;;;;7378190;19;20023;-83
2022/06/20 05:21:08;;;;;;;31.75;22.40;;;22.40;65.20;;;;;;7377371;19;20040;-84
2022/06/20 05:23:41;;;;;;;29.20;21.75;;;22.50;65.00;;;;;;7374537;19;20026;-83
2022/06/20 05:26:16;;;;;;;28.48;19.83;;;22.50;65.00;;;;;;7393019;19;20011;-83
2022/06/20 05:28:46;;;;;;;31.02;20.50;;;22.60;64.30;;;;;;7396977;19;20062;-83
2022/06/20 05:31:17;;;;;;;30.42;20.65;;;22.60;63.80;;;;;;7375287;19;20014;-83
2022/06/20 05:33:52;;;;;;;26.48;19.92;;;22.70;63.80;;;;;;7373701;19;20034;-84
2022/06/20 05:36:28;;;;;;;31.70;20.92;;;22.80;63.30;;;;;;7374944;19;20007;-83
2022/06/20 05:39:04;;;;;;;29.50;19.92;;;22.70;62.70;;;;;;7375976;19;20023;-81
2022/06/20 05:41:33;;;;;;;38.65;20.75;;;22.70;62.60;;;;;;7374382;19;20022;-82
2022/06/20 05:44:03;;;;;;;31.27;20.38;;;22.70;62.80;;;;;;7396740;19;20697;-83
2022/06/20 05:46:39;;;;;;;31.33;21.07;;;22.70;63.30;;;;;;7376788;19;20015;-82
2022/06/20 05:49:14;;;;;;;32.03;18.77;;;22.80;63.60;;;;;;7377185;19;20272;-83
2022/06/20 05:51:47;;;;;;;29.73;20.55;;;22.80;63.60;;;;;;7376382;19;20026;-83
2022/06/20 05:54:20;;;;;;;32.15;19.50;;;22.70;61.90;;;;;;7374904;19;20048;-83
2022/06/20 05:56:52;;;;;;;29.65;18.63;;;22.70;62.30;;;;;;7377281;19;20014;-83
2022/06/20 05:59:41;;;;;;;31.10;17.88;;;22.70;61.90;;;;;;7375879;19;20029;-83
2022/06/20 06:02:23;;;;;;;28.50;18.58;;;22.60;62.00;;;;;;7390110;19;20015;-84
2022/06/20 06:05:01;;;;;;;31.48;18.45;;;22.60;63.00;;;;;;7397979;19;20018;-83
2022/06/20 06:07:36;;;;;;;27.83;18.35;;;22.70;62.10;;;;;;7374156;19;20052;-82
2022/06/20 06:10:19;;;;;;;29.02;17.83;;;22.70;62.50;;;;;;7373640;19;20155;-83
2022/06/20 06:12:54;;;;;;;28.10;17.58;;;22.80;62.10;;;;;;7373886;19;20018;-81
2022/06/20 06:15:31;;;;;;;33.75;17.20;;;22.80;63.00;;;;;;7375570;19;20074;-82
2022/06/20 06:18:03;;;;;;;28.45;17.02;;;22.90;62.60;;;;;;7372013;19;20003;-82
2022/06/20 06:20:34;;;;;;;32.15;17.50;;;23.00;62.50;;;;;;7372878;19;20537;-82
2022/06/20 06:23:11;;;;;;;33.95;16.48;;;23.00;62.10;;;;;;7394642;19;20082;-83
2022/06/20 06:25:44;;;;;;;27.88;16.80;;;23.00;62.60;;;;;;7371694;19;20038;-79
2022/06/20 06:28:18;;;;;;;27.15;15.65;;;23.10;62.00;;;;;;7373025;19;20588;-80
2022/06/20 06:30:52;;;;;;;27.60;16.35;;;23.10;61.90;;;;;;7373806;19;20017;-79
2022/06/20 06:33:30;;;;;;;30.45;15.50;;;23.00;61.30;;;;;;7373912;19;20014;-79
2022/06/20 06:36:05;;;;;;;19.42;13.85;;;23.00;60.80;;;;;;7371408;19;20445;-79
2022/06/20 06:38:40;;;;;;;23.85;15.13;;;23.00;61.70;;;;;;7371569;19;20011;-79
2022/06/20 06:41:17;;;;;;;24.50;15.15;;;23.00;62.00;;;;;;7392485;19;20014;-79
2022/06/20 06:43:54;;;;;;;29.30;15.15;;;23.10;61.10;;;;;;7370724;19;20436;-83
2022/06/20 06:46:35;;;;;;;26.85;14.60;;;23.20;61.60;;;;;;7336212;19;20350;-79
2022/06/20 06:49:17;;;;;;;23.05;14.40;;;23.20;61.10;;;;;;7368586;19;20029;-78
2022/06/20 06:51:56;;;;;;;24.23;13.00;;;23.10;60.70;;;;;;7372346;19;20026;-81
2022/06/20 06:54:33;;;;;;;21.70;13.23;;;23.10;61.10;;;;;;7370642;19;20482;-80
2022/06/20 06:57:10;;;;;;;26.02;13.32;;;23.00;60.90;;;;;;7368427;19;20014;-81
2022/06/20 06:59:50;;;;;;;19.13;12.45;;;23.00;61.10;;;;;;7372279;19;20022;-78
2022/06/20 07:02:22;;;;;;;22.48;12.00;;;23.00;61.10;;;;;;7369734;19;20058;-77
2022/06/20 07:08:06;;;;;;;30.35;11.65;;;23.00;60.80;;;;;;7367784;19;20014;-81
2022/06/20 07:11:02;;;;;;;22.88;10.60;;;23.00;59.90;;;;;;7379206;19;20014;-82
2022/06/20 07:13:38;;;;;;;23.77;10.38;;;23.00;61.60;;;;;;7325599;19;20128;-80
2022/06/20 07:16:16;;;;;;;20.75;10.02;;;23.00;60.30;;;;;;7394926;19;20344;-77
2022/06/20 07:18:49;;;;;;;22.00;9.68;;;23.00;60.50;;;;;;7371340;19;20445;-77
2022/06/20 07:21:21;;;;;;;25.52;9.90;;;23.10;60.40;;;;;;7370562;19;20019;-78
2022/06/20 07:24:15;;;;;;;26.17;9.73;;;23.10;59.50;;;;;;7374274;19;20025;-81
2022/06/20 07:26:54;;;;;;;21.88;9.27;;;23.00;58.90;;;;;;7370515;19;20593;-79
2022/06/20 07:29:27;;;;;;;23.52;9.32;;;22.90;59.40;;;;;;7369356;19;20034;-77
2022/06/20 07:32:01;;;;;;;22.45;8.88;;;22.90;59.40;;;;;;7386838;19;20786;-78
2022/06/20 07:34:36;;;;;;;18.65;8.05;;;22.90;59.30;;;;;;7369834;19;20102;-77
2022/06/20 07:37:23;;;;;;;24.58;9.32;;;22.90;60.00;;;;;;7368959;19;20026;-78
2022/06/20 07:39:57;;;;;;;21.55;9.18;;;22.90;59.50;;;;;;7373989;19;20014;-80
2022/06/20 07:49:00;;;;;;;;;;;22.90;59.70;;;;;;7380325;19;20035;-78
2022/06/20 07:51:33;;;;;;;19.48;7.95;;;23.00;59.70;;;;;;7367513;19;19963;-77
2022/06/20 07:54:05;;;;;;;21.92;9.35;;;22.90;59.10;;;;;;7370088;19;20014;-78
2022/06/20 07:56:38;;;;;;;24.13;9.50;;;22.90;58.90;;;;;;7369347;19;20019;-79
2022/06/20 07:59:14;;;;;;;24.85;9.20;;;22.90;59.40;;;;;;7392193;19;20014;-77
2022/06/20 08:01:51;;;;;;;22.73;9.98;;;22.80;59.30;;;;;;7371075;19;20014;-77
2022/06/20 08:04:27;;;;;;;25.67;9.73;;;22.70;59.10;;;;;;7366179;19;20014;-77
2022/06/20 08:06:59;;;;;;;25.88;9.02;;;22.70;59.30;;;;;;7367401;19;20013;-76
2022/06/20 08:09:36;;;;;;;17.55;9.70;;;22.70;59.50;;;;;;7370513;19;20019;-79
2022/06/20 08:12:10;;;;;;;29.77;11.13;;;22.60;59.30;;;;;;7366360;19;20597;-77
2022/06/20 08:14:44;;;;;;;21.58;10.02;;;22.60;59.20;;;;;;7368952;19;20028;-78
2022/06/20 08:17:16;;;;;;;20.67;9.85;;;22.50;59.70;;;;;;7368502;19;20045;-80
2022/06/20 08:19:47;;;;;;;22.45;9.25;;;22.60;60.30;;;;;;7391017;19;20018;-79
2022/06/20 08:22:20;;;;;;;26.02;9.65;;;22.60;59.80;;;;;;7370164;19;20014;-80
2022/06/20 08:24:53;;;;;;;25.88;9.60;;;22.60;59.70;;;;;;7362429;19;20109;-78
2022/06/20 08:27:36;;;;;;;21.80;9.85;;;22.70;59.70;;;;;;7367137;19;20019;-78
2022/06/20 08:30:12;;;;;;;26.25;10.00;;;22.80;59.80;;;;;;7369655;19;20087;-78
2022/06/20 08:32:56;;;;;;;24.48;9.50;;;22.80;58.80;;;;;;7376684;19;20019;-77
2022/06/20 08:35:32;;;;;;;28.63;10.10;;;22.70;59.00;;;;;;7371615;19;20027;-77
2022/06/20 08:38:06;;;;;;;23.15;9.70;;;22.70;59.00;;;;;;7393454;19;20019;-78
2022/06/20 08:41:23;;;;;;;20.73;9.20;;;22.70;58.60;;;;;;7377268;19;20082;-79
2022/06/20 08:44:28;;;;;;;31.45;9.00;;;22.60;59.10;;;;;;7374151;19;20447;-79
2022/06/20 08:47:32;;;;;;;22.13;8.52;;;22.70;60.10;;;;;;7376541;19;21010;-79
2022/06/20 08:50:34;;;;;;;18.77;8.10;;;22.80;59.70;;;;;;7376995;19;20739;-79
2022/06/20 08:53:38;;;;;;;22.60;8.90;;;22.90;59.70;;;;;;7378359;19;20120;-79
2022/06/20 08:56:27;;;;;;;17.02;8.10;;;23.00;59.00;;;;;;7273295;19;2004521;-79
2022/06/20 08:59:07;;;;;;;22.17;8.95;;;23.10;59.20;;;;;;7399557;19;20018;-78
2022/06/20 09:01:47;;;;;;;18.30;8.82;;;23.10;59.60;;;;;;7377897;19;20415;-79
2022/06/20 09:04:44;;;;;;;20.58;8.77;;;23.10;59.00;;;;;;7376360;19;20018;-79
2022/06/20 09:07:40;;;;;;;21.83;8.63;;;23.10;58.70;;;;;;7377884;19;20007;-78
2022/06/20 09:10:27;;;;;;;22.15;9.90;;;23.10;58.10;;;;;;7375362;19;20186;-75
2022/06/20 09:13:16;;;;;;;24.77;9.35;;;22.90;58.40;;;;;;7374990;19;20021;-79
2022/06/20 09:15:55;;;;;;;18.75;8.27;;;22.80;58.50;;;;;;7373030;19;20288;-78
2022/06/20 09:18:43;;;;;;;21.58;9.18;;;22.90;58.60;;;;;;7374121;19;20015;-78
2022/06/20 09:21:23;;;;;;;23.15;8.80;;;22.90;58.50;;;;;;7374781;19;20010;-78
2022/06/20 09:24:05;;;;;;;20.65;10.38;;;23.10;59.20;;;;;;7371276;19;20089;-77
2022/06/20 09:26:40;;;;;;;20.17;9.88;;;23.00;57.70;;;;;;7372621;19;20154;-77
2022/06/20 09:29:27;;;;;;;33.05;9.82;;;23.00;57.50;;;;;;7391926;19;20019;-77
2022/06/20 09:32:27;;;;;;;29.42;9.63;;;23.00;58.10;;;;;;7374169;19;20110;-78
2022/06/20 09:35:24;;;;;;;19.33;9.45;;;23.00;59.00;;;;;;7372073;19;20021;-78
2022/06/20 09:38:17;;;;;;;25.88;10.13;;;23.10;58.00;;;;;;7373490;19;20318;-78
2022/06/20 09:40:57;;;;;;;27.67;10.25;;;23.10;56.90;;;;;;7369975;19;20015;-77
2022/06/20 09:43:36;;;;;;;21.13;8.77;;;23.00;57.80;;;;;;7372707;19;20022;-77
2022/06/20 09:46:13;;;;;;;23.42;8.70;;;23.10;58.00;;;;;;7372123;19;20443;-77
2022/06/20 09:48:49;;;;;;;24.98;9.65;;;23.20;58.10;;;;;;7373937;19;20014;-77
2022/06/20 09:51:24;;;;;;;22.75;8.95;;;23.30;57.80;;;;;;7371417;19;20022;-76
2022/06/20 09:54:02;;;;;;;19.60;10.05;;;23.40;57.50;;;;;;7372815;19;20419;-77
2022/06/20 09:56:43;;;;;;;26.52;10.18;;;23.20;56.70;;;;;;7370855;19;20501;-77
2022/06/20 09:59:21;;;;;;;21.88;9.40;;;23.20;57.30;;;;;;7370844;19;20017;-78
2022/06/20 10:01:57;;;;;;;23.83;9.02;;;23.30;57.70;;;;;;7390695;19;20047;-78
2022/06/20 10:04:40;;;;;;;26.00;9.55;;;23.50;58.20;;;;;;7372505;19;20019;-78
2022/06/20 10:07:17;;;;;;;25.77;9.32;;;23.70;58.00;;;;;;7370579;19;20016;-78
2022/06/20 10:09:52;;;;;;;28.95;9.07;;;24.00;57.50;;;;;;7370617;19;20022;-77
2022/06/20 10:12:35;;;;;;;23.40;8.57;;;24.10;56.10;;;;;;7373478;19;20048;-77
2022/06/20 10:15:13;;;;;;;24.80;9.27;;;24.20;56.60;;;;;;7371541;19;20031;-76
2022/06/20 10:17:50;;;;;;;28.45;9.70;;;24.40;55.90;;;;;;7368976;19;20010;-76
2022/06/20 10:20:34;;;;;;;24.05;8.57;;;24.50;55.10;;;;;;7372158;19;20022;-77
2022/06/20 10:23:16;;;;;;;18.38;8.45;;;24.50;56.40;;;;;;7391068;19;20015;-79
2022/06/20 10:26:04;;;;;;;22.10;8.65;;;24.60;55.00;;;;;;7372777;19;20014;-77
2022/06/20 10:28:45;;;;;;;19.95;8.73;;;24.60;54.90;;;;;;7373472;19;20367;-78
2022/06/20 10:31:38;;;;;;;15.98;7.85;;;24.60;54.00;;;;;;7374260;19;20094;-77
2022/06/20 10:34:10;;;;;;;20.60;8.60;;;24.60;54.70;;;;;;7370484;19;20568;-79
2022/06/20 10:36:50;;;;;;;18.45;9.05;;;24.70;55.40;;;;;;7373512;19;20019;-78
2022/06/20 10:39:27;;;;;;;18.70;8.65;;;24.70;54.80;;;;;;7373052;19;20022;-79
2022/06/20 10:42:08;;;;;;;19.98;8.93;;;24.60;54.70;;;;;;7370188;19;20018;-79
2022/06/20 10:44:58;;;;;;;23.75;9.00;;;24.60;55.20;;;;;;7368581;19;20021;-78
2022/06/20 10:47:37;;;;;;;23.05;10.13;;;24.50;54.60;;;;;;7370231;19;20026;-79
2022/06/20 10:50:18;;;;;;;24.33;9.15;;;24.30;54.00;;;;;;7394620;19;20006;-78
2022/06/20 10:52:52;;;;;;;;;;;24.20;54.60;;;;;;7372155;19;20086;-77
2022/06/20 10:55:32;;;;;;;18.60;8.10;;;24.30;55.20;;;;;;7371463;19;19922;-78
2022/06/20 10:58:12;;;;;;;23.08;8.35;;;24.30;55.20;;;;;;7374789;19;20017;-78
2022/06/20 11:00:50;;;;;;;21.00;9.23;;;24.30;55.40;;;;;;7377301;19;20344;-78
2022/06/20 11:03:41;;;;;;;24.90;9.43;;;24.30;55.20;;;;;;7380695;19;20042;-77
2022/06/20 11:06:18;;;;;;;19.58;8.80;;;24.30;55.90;;;;;;7381400;19;20017;-77
2022/06/20 12:12:27;;;;;;;16.92;9.60;;;25.70;54.00;;;;;;6648675;19;20007;-89
2022/06/20 12:15:21;;;;;;;18.00;8.73;;;25.90;54.40;;;;;;7265774;19;20014;-89
2022/06/20 12:23:46;;;;;;;17.40;9.38;;;26.30;53.40;;;;;;7292229;19;2003784;-90
2022/06/20 12:41:30;;;;;;;14.30;7.60;;;26.60;52.20;;;;;;7268697;19;20094;-88
2022/06/20 12:44:47;;;;;;;14.75;7.65;;;26.60;52.20;;;;;;6607454;19;20058;-90
2022/06/20 12:47:46;;;;;;;15.63;8.70;;;26.70;52.80;;;;;;6663205;19;20006;-90
2022/06/20 12:50:24;;;;;;;18.23;8.52;;;26.80;51.80;;;;;;7386689;19;20010;-89
2022/06/20 12:53:21;;;;;;;12.40;7.10;;;26.90;51.50;;;;;;7384861;19;20014;-88
2022/06/20 13:08:30;;;;;;;14.45;7.78;;;27.00;51.30;;;;;;7372001;19;20589;-88
2022/06/20 13:11:13;;;;;;;17.10;7.10;;;27.00;51.50;;;;;;7388355;19;20014;-89
2022/06/20 13:14:08;;;;;;;12.13;6.57;;;27.10;50.60;;;;;;7383935;19;20023;-86
2022/06/20 13:16:47;;;;;;;18.27;7.22;;;27.20;50.50;;;;;;7253349;19;20021;-88
2022/06/20 13:55:26;;;;;;;13.55;5.82;;;27.40;49.00;;;;;;7324604;19;20229;-87
2022/06/20 13:58:03;;;;;;;11.05;6.03;;;27.50;49.70;;;;;;7295731;19;20030;-87
2022/06/20 14:00:35;;;;;;;12.65;5.65;;;27.60;49.60;;;;;;7324097;19;20014;-89
2022/06/20 14:22:00;;;;;;;15.57;5.65;;;27.50;49.10;;;;;;2707151;18;3216601;-89
2022/06/20 14:43:36;;;;;;;17.63;5.60;;;27.80;49.40;;;;;;7361027;19;20016;-91
2022/06/20 14:46:16;;;;;;;14.15;5.25;;;27.90;48.50;;;;;;7390203;19;20422;-89
2022/06/20 19:08:52;;;;;;;4.50;1.95;;;30.50;38.20;;;;;;7406789;19;19934;-91
2022/06/20 19:16:50;;;;;;;6.00;1.73;;;29.30;40.30;;;;;;7284133;19;20299;-87
2022/06/20 19:19:43;;;;;;;7.32;1.90;;;29.00;41.10;;;;;;7414415;19;20003;-91
2022/06/20 19:22:42;;;;;;;5.47;2.08;;;28.70;41.30;;;;;;7352066;19;20017;-86
2022/06/20 19:53:48;;;;;;;7.65;1.90;;;26.90;44.20;;;;;;7268371;19;20018;-92
2022/06/20 20:11:57;;;;;;;3.78;1.90;;;26.60;44.60;;;;;;7363443;19;21352;-88
2022/06/20 20:14:26;;;;;;;10.15;2.00;;;26.50;44.30;;;;;;7410414;19;20031;-91
2022/06/20 20:22:19;;;;;;;3.88;2.00;;;26.40;44.90;;;;;;7337640;19;20058;-91
2022/06/20 20:25:26;;;;;;;5.38;2.15;;;26.30;44.70;;;;;;7431219;19;20040;-92
2022/06/20 20:28:13;;;;;;;4.35;2.08;;;26.30;45.10;;;;;;7410403;19;20014;-92
2022/06/20 20:47:27;;;;;;;6.10;2.28;;;26.10;46.30;;;;;;7404550;19;20002;-92
2022/06/20 20:50:05;;;;;;;5.75;2.30;;;26.10;46.30;;;;;;7430885;19;20019;-91
2022/06/20 20:52:40;;;;;;;5.60;2.78;;;26.00;46.10;;;;;;7409148;19;20011;-90
2022/06/20 20:55:17;;;;;;;5.30;2.00;;;26.00;46.50;;;;;;7409255;19;20035;-90
2022/06/20 20:57:51;;;;;;;6.28;2.67;;;26.00;46.40;;;;;;7407389;19;20014;-91
2022/06/20 21:00:25;;;;;;;9.52;2.70;;;25.80;46.20;;;;;;7410932;19;20025;-91
2022/06/20 21:03:01;;;;;;;7.15;2.58;;;25.80;45.90;;;;;;7406801;19;20002;-91
2022/06/20 21:05:34;;;;;;;4.80;2.30;;;25.70;46.00;;;;;;7406682;19;20018;-91
2022/06/20 21:08:08;;;;;;;6.90;2.88;;;25.70;46.00;;;;;;7428981;19;19998;-91
2022/06/20 21:10:43;;;;;;;6.00;4.00;;;25.60;45.60;;;;;;7411267;19;20033;-91
2022/06/20 21:13:18;;;;;;;8.93;2.35;;;25.60;45.90;;;;;;7409658;19;20011;-91
2022/06/20 21:15:53;;;;;;;6.72;2.40;;;25.60;46.20;;;;;;7407469;19;20014;-91
2022/06/20 21:18:30;;;;;;;5.80;2.63;;;25.60;46.00;;;;;;7404356;19;20035;-92
2022/06/20 21:21:08;;;;;;;8.32;2.45;;;25.50;46.10;;;;;;7405409;19;20011;-91
2022/06/20 22:06:37;;;;;;;6.32;2.33;;;25.20;47.10;;;;;;7402288;19;20003;-94
2022/06/20 22:51:09;;;;;;;7.90;2.20;;;24.90;47.70;;;;;;7440579;19;20022;-88
2022/06/20 22:53:45;;;;;;;6.43;2.47;;;25.00;47.80;;;;;;7411332;19;19995;-95
2022/06/20 22:56:18;;;;;;;7.10;2.10;;;24.90;47.70;;;;;;7410793;19;19994;-95
2022/06/20 23:02:02;;;;;;;11.10;2.47;;;24.90;47.90;;;;;;7410740;19;19999;-95
2022/06/20 23:04:36;;;;;;;6.90;2.50;;;24.90;47.90;;;;;;7412972;19;20119;-95
2022/06/20 23:07:05;;;;;;;4.90;2.08;;;24.90;48.10;;;;;;7412440;19;20021;-94
2022/06/20 23:09:37;;;;;;;6.70;2.10;;;24.80;47.80;;;;;;7413629;19;20001;-94
